Time;durP1;ratioP1;P1;durP2;ratioP2;P2;SDS_P1;SDS_P2;PMS_P1;PMS_P2;Temp;Humidity;BMP_temperature;BMP_pressure;BME280_temperature;BME280_humidity;BME280_pressure;Samples;Min_cycle;Max_cycle;Signal;HPM_P1;HPM_P2
2022/04/30 00:00:09;;;;;;;14.63;10.30;;;;;;;13.68;83.41;95157.13;5030976;28;20199;-81
2022/04/30 00:02:36;;;;;;;16.33;10.00;;;;;;;13.72;82.86;95161.66;5018894;28;20293;-80
2022/04/30 00:05:03;;;;;;;12.93;9.73;;;;;;;13.74;82.94;95149.16;5019560;28;20192;-81
2022/04/30 00:07:30;;;;;;;14.50;10.07;;;;;;;13.74;82.50;95145.78;5024258;28;20567;-81
2022/04/30 00:09:57;;;;;;;13.07;9.87;;;;;;;13.72;82.83;95145.97;5019946;28;20206;-78
2022/04/30 00:12:25;;;;;;;14.97;9.43;;;;;;;13.71;82.82;95149.59;5024151;28;20226;-79
2022/04/30 00:14:54;;;;;;;12.87;9.27;;;;;;;13.72;82.91;95153.00;5025156;28;20218;-79
2022/04/30 00:17:21;;;;;;;13.47;9.40;;;;;;;13.65;82.87;95153.91;5023517;28;20274;-79
2022/04/30 00:19:48;;;;;;;11.67;8.93;;;;;;;13.67;82.96;95152.91;5021040;28;20207;-78
2022/04/30 00:22:15;;;;;;;10.83;8.87;;;;;;;13.64;82.72;95156.75;5021451;28;20200;-78
2022/04/30 00:24:41;;;;;;;11.70;9.10;;;;;;;13.65;82.55;95153.91;5023478;28;20227;-78
2022/04/30 00:27:10;;;;;;;11.97;9.60;;;;;;;13.70;82.20;95149.84;5019343;28;20627;-81
2022/04/30 00:29:39;;;;;;;11.77;8.97;;;;;;;13.69;82.17;95153.47;5033615;28;20226;-81
2022/04/30 00:32:07;;;;;;;11.57;8.90;;;;;;;13.63;81.84;95145.50;5032530;28;20638;-81
2022/04/30 00:34:33;;;;;;;11.43;8.90;;;;;;;13.64;81.48;95157.56;5025810;28;20199;-81
2022/04/30 00:37:02;;;;;;;11.27;8.77;;;;;;;13.57;81.78;95154.25;5019015;28;20585;-80
2022/04/30 00:39:30;;;;;;;16.33;9.00;;;;;;;13.59;81.73;95156.66;5030192;28;20626;-82
2022/04/30 00:41:57;;;;;;;11.43;8.47;;;;;;;13.57;81.62;95156.06;5020846;28;20212;-81
2022/04/30 00:44:24;;;;;;;11.30;8.70;;;;;;;13.50;81.97;95152.75;5022296;28;20199;-81
2022/04/30 00:46:52;;;;;;;12.03;8.13;;;;;;;13.53;81.05;95152.31;5029948;28;20191;-82
2022/04/30 00:49:19;;;;;;;10.90;8.33;;;;;;;13.52;81.46;95153.31;5025098;28;20202;-84
2022/04/30 00:51:46;;;;;;;11.53;8.43;;;;;;;13.45;81.39;95147.38;5019849;28;20211;-84
2022/04/30 00:54:15;;;;;;;10.50;8.10;;;;;;;13.22;82.32;95144.72;5032828;28;20712;-83
2022/04/30 00:56:45;;;;;;;11.80;8.00;;;;;;;13.19;82.73;95142.56;5025830;28;20645;-84
2022/04/30 00:59:17;;;;;;;12.67;8.80;;;;;;;13.19;82.82;95137.34;5025002;28;20199;-84
2022/04/30 01:01:45;;;;;;;14.57;7.90;;;;;;;13.17;82.81;95140.16;5013961;28;20196;-84
2022/04/30 01:04:18;;;;;;;16.20;8.37;;;;;;;13.13;82.83;95139.00;5029204;28;20191;-84
2022/04/30 01:06:55;;;;;;;10.90;8.37;;;;;;;13.13;82.71;95138.22;5029010;28;20214;-81
2022/04/30 01:09:24;;;;;;;11.97;8.07;;;;;;;13.11;82.81;95132.41;5024277;28;20498;-79
2022/04/30 01:11:57;;;;;;;11.40;8.27;;;;;;;13.14;82.47;95140.59;5023636;28;20665;-80
2022/04/30 01:14:28;;;;;;;10.50;7.90;;;;;;;13.06;82.80;95140.88;5022330;28;20204;-80
2022/04/30 01:16:57;;;;;;;11.43;7.83;;;;;;;13.03;82.77;95141.31;5026529;28;20215;-78
2022/04/30 01:19:26;;;;;;;13.00;7.73;;;;;;;13.00;83.10;95139.94;5027359;28;20219;-82
2022/04/30 01:21:56;;;;;;;9.40;7.80;;;;;;;12.93;83.36;95141.84;5027517;28;20226;-82
2022/04/30 01:24:26;;;;;;;10.00;7.83;;;;;;;12.82;84.11;95134.75;5019828;28;20227;-77
2022/04/30 01:26:55;;;;;;;11.70;8.17;;;;;;;12.76;85.05;95130.41;5021813;28;20194;-78
2022/04/30 01:29:24;;;;;;;14.03;8.30;;;;;;;12.77;85.27;95131.22;5020756;28;20705;-78
2022/04/30 01:37:24;;;;;;;10.80;8.53;;;;;;;12.72;85.78;95129.28;5021433;28;20328;-78
2022/04/30 01:39:57;;;;;;;14.20;8.90;;;;;;;12.66;85.99;95122.31;5021600;28;20290;-78
2022/04/30 01:42:25;;;;;;;12.57;8.90;;;;;;;12.62;86.91;95133.41;5022001;28;20198;-78
2022/04/30 01:44:54;;;;;;;11.20;8.50;;;;;;;12.61;86.97;95134.44;5021936;28;20210;-77
2022/04/30 01:47:23;;;;;;;11.67;8.47;;;;;;;12.59;87.02;95121.59;5020873;28;20199;-77
2022/04/30 01:49:50;;;;;;;16.17;9.63;;;;;;;12.55;87.53;95127.47;5021358;28;20554;-77
2022/04/30 01:52:17;;;;;;;13.47;8.70;;;;;;;12.54;87.19;95126.66;5021553;28;20207;-77
2022/04/30 01:54:44;;;;;;;13.17;9.23;;;;;;;12.46;87.46;95119.16;5024696;28;20218;-77
2022/04/30 01:57:15;;;;;;;12.77;9.67;;;;;;;12.44;88.55;95132.38;5021513;28;20712;-77
2022/04/30 01:59:42;;;;;;;13.87;9.87;;;;;;;12.42;89.10;95121.38;5022888;28;20225;-77
2022/04/30 02:02:10;;;;;;;15.20;10.07;;;;;;;12.38;88.48;95127.25;5021465;28;20222;-77
2022/04/30 02:04:38;;;;;;;14.73;10.20;;;;;;;12.35;89.23;95130.31;5019574;28;20204;-77
2022/04/30 02:07:06;;;;;;;15.47;9.97;;;;;;;12.25;89.98;95130.78;5023089;28;20203;-77
2022/04/30 02:09:34;;;;;;;17.43;10.47;;;;;;;12.29;90.28;95129.38;5021697;28;20217;-77
2022/04/30 02:12:01;;;;;;;14.43;9.87;;;;;;;12.16;90.41;95115.66;5024419;28;20201;-77
2022/04/30 02:14:31;;;;;;;15.53;10.20;;;;;;;12.20;90.87;95128.03;5021737;28;20191;-77
2022/04/30 02:16:59;;;;;;;16.30;10.63;;;;;;;12.20;91.03;95127.25;5022633;28;20240;-76
2022/04/30 02:19:29;;;;;;;16.93;10.80;;;;;;;12.12;90.78;95122.31;5020824;28;20282;-77
2022/04/30 02:21:58;;;;;;;17.43;10.97;;;;;;;12.20;90.00;95122.84;5021373;28;20215;-77
2022/04/30 02:24:26;;;;;;;16.33;10.70;;;;;;;12.18;89.88;95126.66;5022455;28;20324;-77
2022/04/30 02:26:53;;;;;;;22.57;13.97;;;;;;;12.13;90.02;95116.88;5021508;28;20278;-77
2022/04/30 02:29:21;;;;;;;27.17;17.73;;;;;;;12.09;90.10;95122.75;5025408;28;20203;-81
2022/04/30 02:31:49;;;;;;;21.33;12.83;;;;;;;12.04;90.70;95119.97;5024266;28;20206;-79
2022/04/30 02:34:16;;;;;;;16.67;12.17;;;;;;;12.04;90.68;95128.59;5021262;28;20210;-80
2022/04/30 02:36:43;;;;;;;24.13;12.40;;;;;;;12.02;90.93;95122.81;5025297;28;20733;-80
2022/04/30 02:39:10;;;;;;;18.13;12.07;;;;;;;12.01;91.73;95121.19;5025058;28;20198;-80
2022/04/30 02:41:36;;;;;;;21.17;13.50;;;;;;;11.97;91.80;95127.06;5022587;28;20212;-80
2022/04/30 02:44:04;;;;;;;21.10;13.80;;;;;;;11.89;92.41;95118.50;5016838;28;20195;-80
2022/04/30 02:46:31;;;;;;;22.60;12.57;;;;;;;11.62;93.67;95114.50;5018863;28;20201;-78
2022/04/30 02:48:59;;;;;;;17.97;11.97;;;;;;;11.14;96.90;95105.66;5019296;28;20203;-79
2022/04/30 02:51:26;;;;;;;20.10;12.90;;;;;;;10.72;99.20;95107.06;5025220;28;20294;-79
2022/04/30 02:53:54;;;;;;;22.63;13.50;;;;;;;10.62;100.00;95107.50;5023909;28;20684;-82
2022/04/30 02:56:21;;;;;;;26.17;14.70;;;;;;;10.73;100.00;95113.88;5026993;28;20210;-82
2022/04/30 03:01:33;;;;;;;33.53;15.53;;;;;;;11.01;100.00;95113.53;5020174;28;20230;-80
2022/04/30 03:04:02;;;;;;;26.80;15.60;;;;;;;11.11;100.00;95113.88;5024269;28;20187;-81
2022/04/30 03:06:32;;;;;;;26.13;16.40;;;;;;;11.19;100.00;95117.03;5019415;28;20191;-81
2022/04/30 03:08:59;;;;;;;23.17;14.57;;;;;;;11.21;99.62;95109.00;5018872;28;20199;-81
2022/04/30 03:11:26;;;;;;;27.80;14.80;;;;;;;11.27;99.63;95108.16;5021302;28;20191;-80
2022/04/30 03:13:53;;;;;;;26.20;16.00;;;;;;;11.31;99.59;95104.91;5019317;28;20572;-80
2022/04/30 03:21:51;;;;;;;29.40;16.23;;;;;;;11.32;98.87;95110.91;5024262;28;20237;-81
2022/04/30 03:24:19;;;;;;;25.77;16.47;;;;;;;11.25;99.13;95105.78;5020082;28;20322;-80
2022/04/30 03:26:46;;;;;;;26.83;15.40;;;;;;;11.21;99.51;95106.41;5024636;28;20191;-80
2022/04/30 03:29:14;;;;;;;25.70;15.77;;;;;;;11.17;100.00;95107.81;5025004;28;20207;-80
2022/04/30 03:31:42;;;;;;;22.23;15.53;;;;;;;11.17;99.75;95113.81;5021985;28;20199;-79
2022/04/30 03:34:14;;;;;;;29.23;15.83;;;;;;;11.17;99.54;95116.41;5022717;28;20350;-79
2022/04/30 03:36:41;;;;;;;31.00;16.47;;;;;;;11.16;99.99;95125.25;5022712;28;20219;-79
2022/04/30 03:39:09;;;;;;;23.97;15.33;;;;;;;11.18;99.47;95123.22;5017818;28;20342;-81
2022/04/30 03:41:36;;;;;;;26.73;15.20;;;;;;;11.18;98.93;95122.41;5021520;28;20202;-80
2022/04/30 03:44:03;;;;;;;27.53;16.57;;;;;;;11.12;100.00;95125.84;5020627;28;20199;-81
2022/04/30 03:46:30;;;;;;;31.60;17.03;;;;;;;11.05;99.98;95132.91;5025999;28;20202;-81
2022/04/30 03:49:00;;;;;;;28.47;15.73;;;;;;;11.05;100.00;95130.31;5024118;28;20211;-81
2022/04/30 03:51:28;;;;;;;25.90;15.07;;;;;;;11.07;100.00;95130.91;5019487;28;20207;-81
2022/04/30 03:53:55;;;;;;;30.77;15.83;;;;;;;11.05;100.00;95128.53;5023235;28;20209;-81
2022/04/30 03:56:24;;;;;;;24.57;15.93;;;;;;;11.06;100.00;95130.09;5021548;28;20214;-80
2022/04/30 03:58:51;;;;;;;27.30;16.40;;;;;;;10.97;100.00;95110.53;5022743;28;20302;-80
2022/04/30 04:01:19;;;;;;;27.50;16.07;;;;;;;11.10;100.00;95133.09;5014288;28;20199;-80
2022/04/30 04:03:50;;;;;;;25.40;16.40;;;;;;;11.08;100.00;95128.06;5020141;28;20204;-81
2022/04/30 04:06:17;;;;;;;33.13;16.90;;;;;;;11.13;100.00;95132.66;5018880;28;20237;-79
2022/04/30 04:08:49;;;;;;;24.60;13.90;;;;;;;10.98;100.00;95124.34;5016386;28;20667;-80
2022/04/30 04:11:16;;;;;;;27.97;13.73;;;;;;;10.81;100.00;95127.44;5015293;28;20199;-80
2022/04/30 04:19:12;;;;;;;29.70;16.13;;;;;;;9.99;100.00;95134.22;5023915;28;20568;-80
2022/04/30 04:21:39;;;;;;;31.47;17.10;;;;;;;10.14;100.00;95130.47;5029041;28;20202;-80
2022/04/30 04:26:53;;;;;;;30.00;15.20;;;;;;;10.44;100.00;95148.97;5021864;28;20684;-83
2022/04/30 04:29:19;;;;;;;36.37;16.20;;;;;;;10.46;100.00;95141.75;5024727;28;20203;-85
2022/04/30 04:31:46;;;;;;;32.60;15.50;;;;;;;10.52;100.00;95132.34;5022761;28;20199;-83
2022/04/30 04:34:13;;;;;;;30.20;16.13;;;;;;;10.65;100.00;95132.28;5024522;28;20210;-83
2022/04/30 04:36:40;;;;;;;26.43;14.70;;;;;;;10.81;100.00;95137.84;5027495;28;20226;-79
2022/04/30 04:39:11;;;;;;;23.47;14.73;;;;;;;10.93;100.00;95132.78;5019445;28;20199;-81
2022/04/30 04:41:39;;;;;;;27.10;15.90;;;;;;;11.04;100.00;95137.31;5021574;28;20202;-80
2022/04/30 04:44:06;;;;;;;25.93;14.80;;;;;;;11.18;100.00;95138.03;5023604;28;20195;-79
2022/04/30 04:46:33;;;;;;;21.60;14.07;;;;;;;11.22;100.00;95128.81;5027973;28;20248;-80
2022/04/30 04:49:00;;;;;;;23.60;14.57;;;;;;;11.34;100.00;95134.94;5030355;28;20212;-80
2022/04/30 04:51:28;;;;;;;24.17;14.20;;;;;;;11.46;100.00;95140.28;5024944;28;20613;-80
2022/04/30 04:53:55;;;;;;;24.20;14.97;;;;;;;11.60;99.82;95142.53;5027377;28;20586;-84
2022/04/30 04:56:23;;;;;;;27.70;15.00;;;;;;;11.73;99.27;95152.91;5030519;28;20307;-83
2022/04/30 04:58:50;;;;;;;24.70;15.07;;;;;;;11.84;97.86;95152.22;5025396;28;20696;-79
2022/04/30 05:01:17;;;;;;;30.43;14.97;;;;;;;11.91;97.37;95152.16;5022401;28;20629;-79
2022/04/30 05:03:44;;;;;;;28.50;15.43;;;;;;;11.98;96.64;95152.88;5018983;28;20196;-80
2022/04/30 05:06:11;;;;;;;26.20;16.07;;;;;;;12.01;95.82;95149.84;5022158;28;20206;-80
2022/04/30 05:08:37;;;;;;;25.93;15.30;;;;;;;12.16;95.13;95158.13;5020843;28;20213;-79
2022/04/30 05:11:04;;;;;;;32.47;16.63;;;;;;;12.23;95.56;95163.28;5021739;28;20196;-78
2022/04/30 05:13:33;;;;;;;29.90;16.33;;;;;;;12.29;95.00;95158.03;5022063;28;20203;-79
2022/04/30 05:15:59;;;;;;;28.40;16.03;;;;;;;12.41;93.79;95158.09;5019637;28;20203;-80
2022/04/30 05:18:26;;;;;;;32.27;15.63;;;;;;;12.41;93.60;95166.69;5020731;28;20281;-79
2022/04/30 05:20:54;;;;;;;28.27;15.17;;;;;;;12.38;93.67;95174.19;5022027;28;20203;-81
2022/04/30 05:23:21;;;;;;;30.97;15.80;;;;;;;12.39;93.82;95166.13;5023610;28;20201;-81
2022/04/30 05:25:48;;;;;;;26.13;15.17;;;;;;;12.46;92.90;95166.88;5021853;28;20234;-78
2022/04/30 05:28:15;;;;;;;25.93;16.07;;;;;;;12.43;93.33;95161.28;5017420;28;20207;-78
2022/04/30 05:30:43;;;;;;;28.17;16.87;;;;;;;12.48;93.99;95164.84;5018879;28;20203;-77
2022/04/30 05:33:10;;;;;;;29.37;15.43;;;;;;;12.48;93.99;95164.03;5019829;28;20203;-78
2022/04/30 05:35:37;;;;;;;26.97;16.23;;;;;;;12.50;93.46;95162.00;5018696;28;20207;-78
2022/04/30 05:38:04;;;;;;;28.17;17.07;;;;;;;12.53;93.25;95158.97;5019672;28;20242;-79
2022/04/30 05:40:30;;;;;;;25.33;15.90;;;;;;;12.64;93.23;95163.44;5023397;28;21225;-79
2022/04/30 05:42:57;;;;;;;23.40;16.67;;;;;;;12.70;92.58;95164.41;5020937;28;20601;-79
2022/04/30 05:45:24;;;;;;;27.40;16.13;;;;;;;12.73;92.58;95164.75;5024446;28;20195;-79
2022/04/30 05:47:53;;;;;;;25.77;16.27;;;;;;;12.67;92.23;95163.00;5020418;28;20198;-80
2022/04/30 05:50:19;;;;;;;32.57;16.97;;;;;;;12.44;93.65;95168.06;5020845;28;20237;-79
2022/04/30 05:52:46;;;;;;;25.73;16.77;;;;;;;12.37;96.35;95164.75;5025893;28;20202;-79
2022/04/30 05:55:13;;;;;;;23.17;16.03;;;;;;;12.48;96.45;95159.63;5019584;28;20209;-81
2022/04/30 05:57:41;;;;;;;28.43;16.30;;;;;;;12.64;96.01;95163.44;5021509;28;20225;-82
2022/04/30 06:00:09;;;;;;;28.23;16.10;;;;;;;12.85;94.37;95159.59;5021221;28;20218;-81
2022/04/30 06:02:36;;;;;;;25.27;15.70;;;;;;;13.07;93.38;95179.03;5020652;28;20286;-80
2022/04/30 06:05:05;;;;;;;30.63;15.50;;;;;;;13.30;91.44;95173.94;5020451;28;20219;-80
2022/04/30 06:07:32;;;;;;;20.97;13.53;;;;;;;13.49;89.71;95174.66;5024759;28;20282;-83
2022/04/30 06:09:59;;;;;;;20.10;12.80;;;;;;;13.64;87.07;95177.66;5020327;28;20199;-75
2022/04/30 06:12:26;;;;;;;21.33;14.63;;;;;;;13.71;85.21;95177.56;5018551;28;20829;-74
2022/04/30 06:14:52;;;;;;;20.13;13.10;;;;;;;13.68;85.77;95178.00;5020286;28;20207;-75
2022/04/30 06:17:19;;;;;;;19.17;11.63;;;;;;;13.74;84.64;95179.72;5021267;28;20726;-75
2022/04/30 06:19:46;;;;;;;21.53;12.13;;;;;;;13.86;84.40;95183.13;5019394;28;20202;-74
2022/04/30 06:22:14;;;;;;;16.17;12.37;;;;;;;13.92;83.83;95182.25;5019873;28;20199;-75
2022/04/30 06:24:41;;;;;;;16.30;12.00;;;;;;;13.98;82.67;95174.31;5019899;28;20704;-74
2022/04/30 06:27:08;;;;;;;18.30;11.80;;;;;;;13.93;82.61;95176.00;5021454;28;20203;-74
2022/04/30 06:29:35;;;;;;;16.93;11.63;;;;;;;13.92;82.87;95179.63;5019356;28;20736;-73
2022/04/30 06:32:02;;;;;;;17.10;12.13;;;;;;;13.99;82.42;95178.53;5018735;28;20211;-74
2022/04/30 06:34:29;;;;;;;14.77;11.47;;;;;;;13.97;82.00;95164.06;5019121;28;20195;-74
2022/04/30 06:36:55;;;;;;;18.23;11.13;;;;;;;14.10;80.36;95177.72;5017974;28;20756;-73
2022/04/30 06:39:24;;;;;;;16.33;10.90;;;;;;;14.13;80.72;95179.91;5018720;28;20199;-74
2022/04/30 06:41:51;;;;;;;20.63;11.83;;;;;;;14.13;81.10;95179.91;5021027;28;20203;-74
2022/04/30 06:44:18;;;;;;;15.90;11.63;;;;;;;14.23;80.39;95187.16;5017076;28;20203;-74
2022/04/30 06:46:45;;;;;;;17.77;12.17;;;;;;;14.13;80.94;95176.47;5018131;28;20349;-74
2022/04/30 06:49:12;;;;;;;15.33;11.07;;;;;;;14.13;80.67;95174.66;5015339;28;20226;-75
2022/04/30 06:51:38;;;;;;;16.13;11.70;;;;;;;14.22;80.93;95180.34;5017410;28;20299;-74
2022/04/30 06:57:11;;;;;;;16.20;11.20;;;;;;;14.33;79.48;95179.59;5015444;28;20269;-74
2022/04/30 06:59:40;;;;;;;16.90;11.47;;;;;;;14.40;78.81;95175.00;5018374;28;20700;-74
2022/04/30 07:02:13;;;;;;;16.90;11.73;;;;;;;14.55;78.57;95174.56;5018797;28;20203;-74
2022/04/30 07:04:41;;;;;;;21.10;11.60;;;;;;;14.64;77.86;95173.97;5016736;28;20544;-75
2022/04/30 07:07:08;;;;;;;19.97;11.83;;;;;;;14.77;76.93;95170.34;5019325;28;20213;-75
2022/04/30 07:09:35;;;;;;;14.13;10.70;;;;;;;14.89;76.01;95167.69;5015303;28;20931;-75
2022/04/30 07:12:06;;;;;;;18.27;11.30;;;;;;;14.95;75.85;95167.53;5019224;28;20304;-76
2022/04/30 07:14:35;;;;;;;18.50;11.63;;;;;;;15.11;74.60;95176.50;5018876;28;20256;-74
2022/04/30 07:17:03;;;;;;;19.83;11.90;;;;;;;15.14;74.55;95163.75;5019598;28;20230;-74
2022/04/30 07:19:30;;;;;;;22.57;12.97;;;;;;;15.22;74.10;95165.19;5019684;28;20670;-74
2022/04/30 07:21:57;;;;;;;14.50;11.57;;;;;;;15.31;74.34;95169.03;5018713;28;20202;-74
2022/04/30 07:24:24;;;;;;;17.47;11.57;;;;;;;15.42;74.25;95164.75;5017060;28;20234;-74
2022/04/30 07:26:51;;;;;;;20.60;11.53;;;;;;;15.40;73.12;95170.25;5018812;28;20691;-74
2022/04/30 07:29:19;;;;;;;20.27;11.97;;;;;;;15.17;72.62;95167.72;5021780;28;20203;-76
2022/04/30 07:31:49;;;;;;;22.47;11.50;;;;;;;15.03;72.50;95169.00;5021474;28;20662;-88
2022/04/30 07:34:15;;;;;;;19.83;11.60;;;;;;;15.00;73.54;95165.03;5020300;28;20206;-85
2022/04/30 07:36:42;;;;;;;15.97;10.83;;;;;;;15.12;73.74;95165.78;5029015;28;20834;-83
2022/04/30 07:39:09;;;;;;;14.40;11.07;;;;;;;15.28;72.42;95162.44;5032179;28;20235;-90
2022/04/30 07:41:36;;;;;;;15.00;10.97;;;;;;;15.31;70.99;95146.25;5029949;28;20268;-89
2022/04/30 07:44:03;;;;;;;16.87;11.43;;;;;;;15.56;70.77;95168.69;5036513;28;20221;-90
2022/04/30 07:46:32;;;;;;;18.90;11.10;;;;;;;15.60;69.22;95151.47;5041739;28;20657;-81
2022/04/30 07:49:00;;;;;;;14.40;10.07;;;;;;;15.85;69.26;95165.00;5027936;28;20215;-84
2022/04/30 07:51:38;;;;;;;14.87;10.53;;;;;;;15.97;69.72;95162.31;5025892;28;20213;-86
2022/04/30 07:54:05;;;;;;;14.97;10.13;;;;;;;16.06;66.80;95153.81;5032139;28;20228;-86
2022/04/30 07:56:33;;;;;;;15.93;10.67;;;;;;;16.23;66.26;95159.84;5036758;28;20193;-87
2022/04/30 07:59:00;;;;;;;13.53;9.63;;;;;;;16.16;67.50;95143.47;5030563;28;20227;-89
2022/04/30 08:01:27;;;;;;;13.97;10.10;;;;;;;16.27;66.22;95126.06;5032315;28;20191;-86
2022/04/30 08:03:55;;;;;;;12.50;9.97;;;;;;;16.55;64.62;95157.44;5037215;28;20202;-86
2022/04/30 08:06:24;;;;;;;16.50;9.77;;;;;;;16.68;63.77;95164.19;5029178;28;20201;-86
2022/04/30 08:08:51;;;;;;;12.50;9.47;;;;;;;16.72;63.69;95163.44;5030181;28;20192;-89
2022/04/30 08:11:18;;;;;;;13.70;8.20;;;;;;;16.67;62.08;95128.44;5035778;28;20668;-89
2022/04/30 08:13:45;;;;;;;10.63;8.07;;;;;;;16.97;61.41;95158.47;5036487;28;20213;-77
2022/04/30 08:16:13;;;;;;;13.03;9.00;;;;;;;17.03;60.52;95159.34;5031235;28;20233;-78
2022/04/30 08:18:41;;;;;;;14.93;9.10;;;;;;;17.15;60.96;95159.22;5029503;28;20227;-76
2022/04/30 08:21:09;;;;;;;12.60;9.60;;;;;;;17.28;61.19;95161.47;5024930;28;20206;-74
2022/04/30 08:23:36;;;;;;;15.53;9.80;;;;;;;17.38;60.70;95162.38;5035456;28;20740;-78
2022/04/30 08:26:04;;;;;;;13.30;9.13;;;;;;;17.45;60.73;95147.22;5042191;28;20229;-76
2022/04/30 08:28:31;;;;;;;11.97;8.23;;;;;;;17.17;62.17;95147.41;5026595;28;20723;-75
2022/04/30 08:30:58;;;;;;;12.00;8.60;;;;;;;17.19;62.34;95150.59;5021427;28;20215;-80
2022/04/30 08:33:25;;;;;;;12.07;8.10;;;;;;;17.12;62.92;95146.56;5024004;28;20581;-76
2022/04/30 08:35:53;;;;;;;12.30;7.80;;;;;;;17.00;62.72;95147.50;5023963;28;20642;-83
2022/04/30 08:38:21;;;;;;;10.00;7.37;;;;;;;16.87;63.26;95150.50;5028863;28;20243;-85
2022/04/30 08:40:49;;;;;;;11.53;8.47;;;;;;;16.70;63.85;95151.59;5035533;28;20217;-88
2022/04/30 08:43:17;;;;;;;10.80;7.90;;;;;;;16.64;64.64;95131.56;5034876;28;20195;-87
2022/04/30 08:45:46;;;;;;;10.27;8.17;;;;;;;16.70;65.11;95141.88;5034053;28;20195;-84
2022/04/30 08:48:15;;;;;;;9.67;7.80;;;;;;;16.87;64.26;95145.25;5025929;28;20677;-86
2022/04/30 08:50:43;;;;;;;11.63;8.20;;;;;;;17.02;64.12;95144.63;5030621;28;20229;-86
2022/04/30 08:53:11;;;;;;;12.80;8.47;;;;;;;17.08;63.47;95146.28;5028656;28;20290;-87
2022/04/30 08:55:39;;;;;;;9.63;7.67;;;;;;;17.00;63.51;95136.19;5022241;28;20662;-88
2022/04/30 08:58:07;;;;;;;12.63;7.93;;;;;;;16.74;64.68;95134.31;5019784;28;20218;-85
2022/04/30 09:00:40;;;;;;;15.87;10.33;;;;;;;16.30;66.18;95121.13;5023380;28;20213;-83
2022/04/30 09:03:07;;;;;;;13.23;8.73;;;;;;;16.26;66.58;95121.84;5021890;28;20341;-79
2022/04/30 09:05:36;;;;;;;10.70;7.60;;;;;;;16.38;67.13;95128.59;5022428;28;20294;-80
2022/04/30 09:08:05;;;;;;;9.97;7.30;;;;;;;16.44;66.46;95121.56;5022307;28;20682;-80
2022/04/30 09:10:34;;;;;;;9.57;7.07;;;;;;;16.65;65.45;95122.66;5022839;28;20666;-79
2022/04/30 09:13:10;;;;;;;14.47;7.40;;;;;;;16.91;64.51;95127.19;5022116;28;20196;-82
2022/04/30 09:15:38;;;;;;;9.53;7.10;;;;;;;17.11;63.49;95126.63;5023620;28;20284;-78
2022/04/30 09:18:07;;;;;;;8.60;6.50;;;;;;;17.26;62.53;95108.34;5023821;28;20227;-81
2022/04/30 09:20:44;;;;;;;9.13;6.57;;;;;;;17.22;61.28;95125.66;5025266;28;20598;-74
2022/04/30 09:23:11;;;;;;;9.40;6.40;;;;;;;17.28;61.12;95119.44;5023623;28;20205;-83
2022/04/30 09:25:50;;;;;;;11.17;6.37;;;;;;;17.29;61.76;95118.38;5022510;28;20741;-82
2022/04/30 09:28:26;;;;;;;11.13;6.67;;;;;;;17.46;61.59;95124.34;5023299;28;20200;-81
2022/04/30 09:31:04;;;;;;;9.73;6.00;;;;;;;17.68;60.35;95122.47;5024000;28;20191;-82
2022/04/30 09:33:31;;;;;;;7.73;6.40;;;;;;;17.74;59.03;95125.94;5023869;28;20213;-81
2022/04/30 09:38:47;;;;;;;12.13;8.53;;;;;;;18.20;57.44;95119.16;5022224;28;20206;-82
2022/04/30 09:41:14;;;;;;;7.18;5.78;;;;;;;18.31;57.16;95112.91;5020426;28;20238;-80
2022/04/30 09:43:42;;;;;;;7.20;5.70;;;;;;;18.31;57.33;95112.91;5022926;28;20203;-80
2022/04/30 09:46:09;;;;;;;20.20;8.50;;;;;;;18.53;56.83;95117.03;5022326;28;20203;-81
2022/04/30 09:54:07;;;;;;;9.30;5.35;;;;;;;18.73;54.75;95102.38;5021129;28;20237;-82
2022/04/30 09:56:36;;;;;;;8.45;5.68;;;;;;;18.98;53.77;95105.09;5022969;28;21146;-82
2022/04/30 09:59:09;;;;;;;13.48;4.68;;;;;;;19.05;51.87;95100.38;5020405;28;20246;-81
2022/04/30 10:01:37;;;;;;;8.82;4.10;;;;;;;19.02;52.12;95100.88;5023545;28;20589;-81
2022/04/30 10:04:08;;;;;;;7.43;4.32;;;;;;;19.14;51.47;95096.97;5021907;28;20210;-81
2022/04/30 10:06:35;;;;;;;11.18;7.57;;;;;;;19.47;51.46;95089.69;5021970;28;20285;-82
2022/04/30 10:09:06;;;;;;;10.35;6.75;;;;;;;19.62;51.11;95079.97;5024893;28;20260;-81
2022/04/30 10:11:40;;;;;;;9.10;4.22;;;;;;;19.90;49.66;95085.75;5020642;28;20213;-82
2022/04/30 10:14:18;;;;;;;5.68;4.43;;;;;;;20.16;48.74;95077.53;5018672;28;20245;-82
2022/04/30 10:17:09;;;;;;;4.25;3.58;;;;;;;20.37;48.28;95071.16;5021895;28;20190;-81
2022/04/30 10:19:33;;;;;;;5.65;4.00;;;;;;;20.46;47.06;95057.44;5025204;28;20610;-80
2022/04/30 10:22:11;;;;;;;4.63;3.80;;;;;;;20.77;46.58;95061.53;5021422;28;20207;-82
2022/04/30 10:24:43;;;;;;;4.90;3.83;;;;;;;20.88;45.95;95066.50;5021460;28;20925;-82
2022/04/30 10:27:10;;;;;;;3.88;3.40;;;;;;;20.86;46.09;95046.69;5020574;28;20280;-82
2022/04/30 10:29:38;;;;;;;6.00;3.88;;;;;;;21.14;45.39;95051.31;5020868;28;20265;-80
2022/04/30 10:32:06;;;;;;;4.95;4.28;;;;;;;21.40;44.95;95055.38;5022109;28;20554;-80
2022/04/30 10:34:33;;;;;;;5.32;4.50;;;;;;;21.41;45.20;95058.84;5022801;28;20202;-82
2022/04/30 10:37:02;;;;;;;6.68;4.50;;;;;;;21.46;44.71;95049.00;5020988;28;20199;-82
2022/04/30 10:39:29;;;;;;;8.32;4.50;;;;;;;21.81;44.80;95044.50;5019394;28;20645;-82
2022/04/30 10:41:57;;;;;;;6.85;4.38;;;;;;;21.84;44.32;95044.72;5022633;28;20202;-80
2022/04/30 10:44:31;;;;;;;4.97;4.10;;;;;;;21.74;44.15;95044.81;5021756;28;20282;-81
2022/04/30 10:47:10;;;;;;;4.38;3.97;;;;;;;21.65;44.06;95049.09;5022961;28;20202;-80
2022/04/30 10:49:37;;;;;;;4.90;3.90;;;;;;;21.89;44.56;95042.06;5020469;28;20309;-82
2022/04/30 10:52:04;;;;;;;4.80;4.07;;;;;;;21.79;44.91;95044.00;5019167;28;20230;-81
2022/04/30 10:54:31;;;;;;;6.07;4.30;;;;;;;22.04;44.42;95051.72;5020902;28;20199;-81
2022/04/30 10:57:00;;;;;;;5.78;4.25;;;;;;;21.88;43.83;95044.97;5022644;28;20254;-81
2022/04/30 10:59:27;;;;;;;6.07;4.63;;;;;;;22.11;44.44;95049.53;5016908;28;20218;-80
2022/04/30 11:01:54;;;;;;;6.50;4.18;;;;;;;22.20;43.68;95039.09;5019825;28;20200;-81
2022/04/30 11:04:24;;;;;;;8.35;4.70;;;;;;;21.84;43.96;95033.34;5017883;28;20241;-81
2022/04/30 11:06:52;;;;;;;5.20;4.10;;;;;;;21.81;44.35;95040.00;5023120;28;20215;-80
2022/04/30 11:09:20;;;;;;;8.77;4.60;;;;;;;21.99;44.72;95046.47;5021573;28;20342;-80
2022/04/30 11:11:51;;;;;;;4.93;4.05;;;;;;;21.58;44.07;95046.00;5019550;28;20202;-81
2022/04/30 11:14:19;;;;;;;6.85;4.05;;;;;;;20.93;44.58;95032.13;5017795;28;20206;-81
2022/04/30 11:16:49;;;;;;;5.15;3.80;;;;;;;20.85;45.17;95032.69;5022566;28;20195;-81
2022/04/30 11:19:17;;;;;;;6.93;3.70;;;;;;;20.95;45.45;95029.22;5020606;28;20249;-81
2022/04/30 11:21:49;;;;;;;6.43;3.97;;;;;;;20.90;45.56;95030.00;5021632;28;20195;-82
2022/04/30 11:24:24;;;;;;;4.35;3.55;;;;;;;20.56;45.88;95029.13;5022399;28;20732;-82
2022/04/30 11:26:55;;;;;;;4.05;3.50;;;;;;;20.28;46.35;95016.56;5019183;28;20194;-81
2022/04/30 11:29:22;;;;;;;7.45;3.60;;;;;;;20.41;46.86;95026.53;5019517;28;20222;-82
2022/04/30 11:31:52;;;;;;;3.83;3.22;;;;;;;20.39;46.89;95015.47;5018913;28;20203;-81
2022/04/30 11:34:19;;;;;;;4.40;3.55;;;;;;;20.21;47.42;95018.66;5020666;28;20221;-80
2022/04/30 11:36:48;;;;;;;5.93;3.78;;;;;;;20.04;47.38;95023.44;5019985;28;20198;-81
2022/04/30 11:39:16;;;;;;;5.03;3.53;;;;;;;19.83;48.17;95021.91;5021054;28;20229;-81
2022/04/30 11:41:44;;;;;;;5.43;3.60;;;;;;;19.84;48.31;95029.56;5016630;28;20198;-80
2022/04/30 11:44:12;;;;;;;5.03;3.50;;;;;;;19.94;48.00;95026.13;5021948;28;20696;-80
2022/04/30 11:46:40;;;;;;;6.30;3.88;;;;;;;19.89;48.44;95012.91;5019469;28;20202;-80
2022/04/30 11:49:11;;;;;;;5.53;3.75;;;;;;;19.95;48.60;95017.13;5019677;28;20218;-81
2022/04/30 11:51:39;;;;;;;4.38;3.90;;;;;;;19.90;48.52;95011.88;5020083;28;20585;-81
2022/04/30 11:54:09;;;;;;;4.03;3.60;;;;;;;20.00;48.35;95015.25;5019713;28;20198;-81
2022/04/30 11:56:37;;;;;;;4.85;3.53;;;;;;;20.06;47.83;95014.19;5020269;28;20688;-81
2022/04/30 11:59:05;;;;;;;5.32;3.42;;;;;;;20.16;47.97;95011.56;5019765;28;20297;-82